createdAt,value
2022-12-18T00:00:28.677Z,57.20
2022-12-18T00:04:50.523Z,58.70
2022-12-18T00:08:52.742Z,61.50
2022-12-18T00:12:54.625Z,66.60
2022-12-18T00:16:58.811Z,59.20
2022-12-18T00:21:03.217Z,54.90
2022-12-18T00:25:05.286Z,42.90
2022-12-18T00:29:14.326Z,45.40
2022-12-18T00:33:16.165Z,56.80
2022-12-18T00:37:20.216Z,58.20
2022-12-18T00:41:46.581Z,47.80
2022-12-18T00:45:48.627Z,53.80
2022-12-18T00:49:50.590Z,51.20
2022-12-18T00:53:53.198Z,76.10
2022-12-18T00:57:55.078Z,52.70
2022-12-18T01:01:57.003Z,54.30
2022-12-18T01:05:59.043Z,67.20
2022-12-18T01:10:01.138Z,63.80
2022-12-18T01:14:03.283Z,69.50
2022-12-18T01:18:05.137Z,67.70
2022-12-18T01:22:07.036Z,42.60
2022-12-18T01:26:16.819Z,61.40
2022-12-18T01:30:19.155Z,56.10
2022-12-18T01:34:21.045Z,55.30
2022-12-18T01:38:22.975Z,54.60
2022-12-18T01:42:26.115Z,54.30
2022-12-18T01:46:28.172Z,46.70
2022-12-18T01:50:37.513Z,58.50
2022-12-18T01:54:39.457Z,52.80
2022-12-18T01:58:56.809Z,28.80
2022-12-18T02:02:58.913Z,37.00
2022-12-18T02:07:09.346Z,43.00
2022-12-18T02:11:37.460Z,56.80
2022-12-18T02:15:47.014Z,53.20
2022-12-18T02:20:17.286Z,47.30
2022-12-18T02:24:54.345Z,57.10
2022-12-18T02:29:02.814Z,49.70
2022-12-18T02:33:09.425Z,50.80
2022-12-18T02:37:15.492Z,55.70
2022-12-18T02:41:18.770Z,52.20
2022-12-18T02:45:21.136Z,54.00
2022-12-18T02:49:49.076Z,50.70
2022-12-18T02:54:07.532Z,59.10
2022-12-18T02:58:14.846Z,50.90
2022-12-18T03:02:23.417Z,46.80
2022-12-18T03:06:37.822Z,53.50
2022-12-18T03:10:46.053Z,52.60
2022-12-18T03:14:54.962Z,62.40
2022-12-18T03:19:01.901Z,55.00
2022-12-18T03:23:16.194Z,48.20
2022-12-18T03:27:23.908Z,52.20
2022-12-18T03:31:30.293Z,59.90
2022-12-18T03:35:39.394Z,49.60
2022-12-18T03:39:42.534Z,48.40
2022-12-18T03:43:51.337Z,43.20
2022-12-18T03:48:15.379Z,63.90
2022-12-18T03:52:28.478Z,51.90
2022-12-18T03:56:37.462Z,52.90
2022-12-18T04:00:40.720Z,49.00
2022-12-18T04:04:45.255Z,52.70
2022-12-18T04:08:47.970Z,60.10
2022-12-18T04:12:56.602Z,75.00
2022-12-18T04:16:59.260Z,67.10
2022-12-18T04:21:05.361Z,68.40
2022-12-18T04:25:09.141Z,53.80
2022-12-18T04:29:13.387Z,71.00
2022-12-18T04:33:15.760Z,60.70
2022-12-18T04:37:18.349Z,50.70
2022-12-18T04:41:20.780Z,54.40
2022-12-18T04:45:23.301Z,59.60
2022-12-18T04:49:25.261Z,55.10
2022-12-18T04:53:27.608Z,52.60
2022-12-18T04:57:30.158Z,55.60
2022-12-18T05:01:34.853Z,63.30
2022-12-18T05:05:37.118Z,63.80
2022-12-18T05:09:39.007Z,46.90
2022-12-18T05:13:41.323Z,57.80
2022-12-18T05:17:43.473Z,51.00
2022-12-18T05:21:45.348Z,41.20
2022-12-18T05:25:58.978Z,48.40
2022-12-18T05:30:00.871Z,57.00
2022-12-18T05:34:02.757Z,40.40
2022-12-18T05:38:04.697Z,62.80
2022-12-18T05:42:06.577Z,59.50
2022-12-18T05:46:13.569Z,73.90
2022-12-18T05:50:16.089Z,66.10
2022-12-18T05:54:18.055Z,55.10
2022-12-18T05:58:19.937Z,56.70
2022-12-18T06:02:21.906Z,49.80
2022-12-18T06:06:26.677Z,54.20
2022-12-18T06:10:28.740Z,50.40
2022-12-18T06:14:30.593Z,58.00
2022-12-18T06:18:33.265Z,58.90
2022-12-18T06:22:35.579Z,52.60
2022-12-18T06:26:39.452Z,70.20
2022-12-18T06:30:45.329Z,65.40
2022-12-18T06:34:47.304Z,52.50
2022-12-18T06:38:49.693Z,49.90
2022-12-18T06:42:51.600Z,58.00
2022-12-18T06:46:53.464Z,58.70
2022-12-18T06:50:55.496Z,64.50
2022-12-18T06:54:57.372Z,50.80
2022-12-18T06:58:59.294Z,45.70
2022-12-18T07:03:01.321Z,60.00
2022-12-18T07:07:03.491Z,50.80
2022-12-18T07:11:05.621Z,68.50
2022-12-18T07:15:07.970Z,56.20
2022-12-18T07:19:09.963Z,67.20
2022-12-18T07:23:11.880Z,54.40
2022-12-18T07:27:13.754Z,65.80
2022-12-18T07:31:21.602Z,96.90
2022-12-18T07:35:25.376Z,66.10
2022-12-18T07:39:27.636Z,55.80
2022-12-18T07:43:29.529Z,39.00
2022-12-18T07:47:31.409Z,53.30
2022-12-18T07:51:33.310Z,45.60
2022-12-18T07:55:54.744Z,45.10
2022-12-18T07:59:57.075Z,31.00
2022-12-18T08:03:59.313Z,46.40
2022-12-18T08:08:01.340Z,89.60
2022-12-18T08:12:03.480Z,48.80
2022-12-18T08:16:07.909Z,77.00
2022-12-18T08:20:10.329Z,61.00
2022-12-18T08:24:12.268Z,56.80
2022-12-18T08:28:14.147Z,50.40
2022-12-18T08:32:16.082Z,56.20
2022-12-18T08:36:18.472Z,44.00
2022-12-18T08:40:21.628Z,47.10
2022-12-18T08:44:38.704Z,53.20
2022-12-18T08:48:40.794Z,35.50
2022-12-18T08:52:42.743Z,39.40
2022-12-18T08:56:44.669Z,43.50
2022-12-18T09:00:46.706Z,32.40
2022-12-18T09:04:53.765Z,32.90
2022-12-18T09:08:58.968Z,73.70
2022-12-18T09:13:01.637Z,48.60
2022-12-18T09:17:03.835Z,41.00
2022-12-18T09:21:14.965Z,59.20
2022-12-18T09:25:16.910Z,75.10
2022-12-18T09:29:19.171Z,50.20
2022-12-18T09:33:21.448Z,54.70
2022-12-18T09:37:23.390Z,55.40
2022-12-18T09:41:44.906Z,74.70
2022-12-18T09:45:52.171Z,72.40
2022-12-18T09:50:00.154Z,57.50
2022-12-18T09:54:13.143Z,53.20
2022-12-18T09:58:45.864Z,75.80
2022-12-18T10:02:48.667Z,103.10
2022-12-18T10:07:18.039Z,67.60
2022-12-18T10:11:35.047Z,68.50
2022-12-18T10:15:54.619Z,64.80
2022-12-18T10:20:14.398Z,56.50
2022-12-18T10:24:34.428Z,45.30
2022-12-18T10:28:40.404Z,94.50
2022-12-18T10:32:43.363Z,71.00
2022-12-18T10:36:45.365Z,68.30
2022-12-18T10:41:01.919Z,56.60
2022-12-18T10:45:13.764Z,60.80
2022-12-18T10:49:29.511Z,55.10
2022-12-18T10:53:33.396Z,69.80
2022-12-18T10:57:38.524Z,76.60
2022-12-18T11:01:50.502Z,83.20
2022-12-18T11:06:03.324Z,81.60
2022-12-18T11:10:06.356Z,73.40
2022-12-18T11:14:22.182Z,61.00
2022-12-18T11:18:32.340Z,64.10
2022-12-18T11:22:37.303Z,71.60
2022-12-18T11:26:40.145Z,92.60
2022-12-18T11:30:43.046Z,67.30
2022-12-18T11:34:59.189Z,83.40
2022-12-18T11:39:14.207Z,70.80
2022-12-18T11:43:27.699Z,88.00
2022-12-18T11:48:04.454Z,77.20
2022-12-18T11:52:24.646Z,60.50
2022-12-18T11:56:36.874Z,76.00
2022-12-18T12:00:47.683Z,89.90
2022-12-18T12:05:04.056Z,62.10
2022-12-18T12:09:23.950Z,70.80
2022-12-18T12:13:47.417Z,53.80
2022-12-18T12:18:11.333Z,59.80
2022-12-18T12:23:09.275Z,95.90
2022-12-18T12:27:35.361Z,68.60
2022-12-18T12:32:16.626Z,65.40
2022-12-18T12:36:34.577Z,56.10
2022-12-18T12:40:52.464Z,104.90
2022-12-18T12:45:02.284Z,67.60
2022-12-18T12:49:10.914Z,56.80
2022-12-18T12:53:24.544Z,81.50
2022-12-18T12:57:40.666Z,58.40
2022-12-18T13:02:04.231Z,56.40
2022-12-18T13:06:33.509Z,55.50
2022-12-18T13:10:38.802Z,59.40
2022-12-18T13:14:41.763Z,52.20
2022-12-18T13:18:51.059Z,45.60
2022-12-18T13:22:53.453Z,55.70
2022-12-18T13:26:55.443Z,51.20
2022-12-18T13:30:58.384Z,44.10
2022-12-18T13:35:18.888Z,53.00
2022-12-18T13:39:30.277Z,53.60
2022-12-18T13:43:41.671Z,51.50
2022-12-18T13:47:44.514Z,49.90
2022-12-18T13:51:49.804Z,56.70
2022-12-18T13:55:52.955Z,51.70
2022-12-18T13:59:56.441Z,73.70
2022-12-18T14:04:34.051Z,65.60
2022-12-18T14:08:42.617Z,54.10
2022-12-18T14:13:00.884Z,62.20
2022-12-18T14:17:10.952Z,52.80
2022-12-18T14:21:23.768Z,51.40
2022-12-18T14:25:31.102Z,65.00
2022-12-18T14:29:35.374Z,62.10
2022-12-18T14:33:39.029Z,58.70
2022-12-18T14:37:41.248Z,57.60
2022-12-18T14:41:43.230Z,61.90
2022-12-18T14:45:47.053Z,54.40
2022-12-18T14:49:49.662Z,50.50
2022-12-18T14:54:02.483Z,107.90
2022-12-18T14:58:04.410Z,82.00
2022-12-18T15:02:27.307Z,57.30
2022-12-18T15:06:38.299Z,58.10
2022-12-18T15:10:47.808Z,47.10
2022-12-18T15:14:49.793Z,45.00
2022-12-18T15:18:53.938Z,60.10
2022-12-18T15:22:55.949Z,48.70
2022-12-18T15:26:58.684Z,69.30
2022-12-18T15:31:02.170Z,72.40
2022-12-18T15:35:21.893Z,76.30
2022-12-18T15:39:25.263Z,50.90
2022-12-18T15:43:37.329Z,61.10
2022-12-18T15:47:39.762Z,48.30
2022-12-18T15:51:41.845Z,64.10
2022-12-18T15:56:02.515Z,44.90
2022-12-18T16:00:05.668Z,45.10
2022-12-18T16:04:09.618Z,44.90
2022-12-18T16:08:11.585Z,63.40
2022-12-18T16:12:21.461Z,51.60
2022-12-18T16:16:23.455Z,59.40
2022-12-18T16:20:26.146Z,62.30
2022-12-18T16:24:31.250Z,58.60
2022-12-18T16:28:33.221Z,50.00
2022-12-18T16:32:35.186Z,48.60
2022-12-18T16:36:37.198Z,54.50
2022-12-18T16:40:59.066Z,38.70
2022-12-18T16:45:01.036Z,38.30
2022-12-18T16:49:03.567Z,36.50
2022-12-18T16:53:06.163Z,52.10
2022-12-18T16:57:12.695Z,59.00
2022-12-18T17:01:14.629Z,54.60
2022-12-18T17:05:16.886Z,45.50
2022-12-18T17:09:26.206Z,45.70
2022-12-18T17:13:28.181Z,42.50
2022-12-18T17:17:30.170Z,38.40
2022-12-18T17:21:32.525Z,50.40
2022-12-18T17:25:34.473Z,50.90
2022-12-18T17:29:36.489Z,36.70
2022-12-18T17:33:38.825Z,47.00
2022-12-18T17:37:41.942Z,59.10
2022-12-18T17:41:43.975Z,43.30
2022-12-18T17:45:45.985Z,64.10
2022-12-18T17:49:48.038Z,38.30
2022-12-18T17:53:50.540Z,35.20
2022-12-18T17:57:52.984Z,33.80
2022-12-18T18:01:55.451Z,35.50
2022-12-18T18:06:00.109Z,40.30
2022-12-18T18:10:02.162Z,47.20
2022-12-18T18:14:10.712Z,45.80
2022-12-18T18:18:12.695Z,48.80
2022-12-18T18:22:17.977Z,38.10
2022-12-18T18:26:21.697Z,27.70
2022-12-18T18:30:25.086Z,34.50
2022-12-18T18:34:30.738Z,44.10
2022-12-18T18:38:32.715Z,49.00
2022-12-18T18:42:34.606Z,43.80
2022-12-18T18:46:36.517Z,33.80
2022-12-18T18:50:38.467Z,31.70
2022-12-18T18:54:57.139Z,28.60
2022-12-18T18:58:59.450Z,30.30
2022-12-18T19:03:02.085Z,48.50
2022-12-18T19:07:04.848Z,32.60
2022-12-18T19:11:34.539Z,39.60
2022-12-18T19:15:39.315Z,27.10
2022-12-18T19:19:42.085Z,33.90
2022-12-18T19:23:44.263Z,48.80
2022-12-18T19:27:46.257Z,46.40
2022-12-18T19:31:48.371Z,51.70
2022-12-18T19:35:51.800Z,43.30
2022-12-18T19:39:54.524Z,41.20
2022-12-18T19:43:57.979Z,33.30
2022-12-18T19:48:04.281Z,38.80
2022-12-18T19:52:06.489Z,38.40
2022-12-18T19:56:10.397Z,34.10
2022-12-18T20:00:18.482Z,34.60
2022-12-18T20:04:20.911Z,35.00
2022-12-18T20:08:22.941Z,40.30
2022-12-18T20:12:25.161Z,36.70
2022-12-18T20:16:27.357Z,35.90
2022-12-18T20:20:29.599Z,37.40
2022-12-18T20:24:31.546Z,29.00
2022-12-18T20:28:33.583Z,33.30
2022-12-18T20:32:37.323Z,31.40
2022-12-18T20:36:39.922Z,33.50
2022-12-18T20:40:43.101Z,30.20
2022-12-18T20:44:45.356Z,30.20
2022-12-18T20:48:47.618Z,32.50
2022-12-18T20:52:49.589Z,23.90
2022-12-18T20:56:51.532Z,32.30
2022-12-18T21:01:11.820Z,34.90
2022-12-18T21:05:13.861Z,30.70
2022-12-18T21:09:15.877Z,29.80
2022-12-18T21:13:18.939Z,34.40
2022-12-18T21:17:20.919Z,31.30
2022-12-18T21:21:26.543Z,30.70
2022-12-18T21:25:30.011Z,30.60
2022-12-18T21:29:32.810Z,26.30
2022-12-18T21:33:35.194Z,35.10
2022-12-18T21:37:37.107Z,36.20
2022-12-18T21:41:57.585Z,35.80
2022-12-18T21:45:59.864Z,37.10
2022-12-18T21:50:01.720Z,33.00
2022-12-18T21:54:03.842Z,28.30
2022-12-18T21:58:05.938Z,26.90
2022-12-18T22:02:14.872Z,36.80
2022-12-18T22:10:18.823Z,24.10
2022-12-18T22:14:21.813Z,19.50
2022-12-18T22:18:23.827Z,29.10
2022-12-18T22:22:25.761Z,27.70
2022-12-18T22:26:32.707Z,23.00
2022-12-18T22:30:37.066Z,25.70
2022-12-18T22:34:39.054Z,23.50
2022-12-18T22:38:42.781Z,27.60
2022-12-18T22:42:44.675Z,21.60
2022-12-18T22:46:59.679Z,21.50
2022-12-18T22:51:15.140Z,21.40
2022-12-18T22:55:17.082Z,21.90
2022-12-18T22:59:21.143Z,23.80
2022-12-18T23:03:23.197Z,25.20
2022-12-18T23:07:25.335Z,22.90
2022-12-18T23:11:27.206Z,23.80
2022-12-18T23:15:29.286Z,23.30
2022-12-18T23:19:31.200Z,30.80
2022-12-18T23:23:36.933Z,24.50
2022-12-18T23:27:38.880Z,29.00
2022-12-18T23:31:40.899Z,25.10
2022-12-18T23:35:42.839Z,23.50
2022-12-18T23:39:44.757Z,26.80
2022-12-18T23:43:46.721Z,25.00
2022-12-18T23:47:51.151Z,22.00
2022-12-18T23:51:54.722Z,21.50
2022-12-18T23:55:56.848Z,18.60
